x

South Santa Rosa Is. Ca (46069) Wave Buoy

10:50 - Mon 4th May 2015 All times are PDT. -7 hours from GMT.

  • Sig Wave height 7.5ft
  • Peak Period 19s
  • Average Period 7s
  • Wind
    20mph, 25mph gusts
  • Sea Temp 61°f
  • Aire Temp 58°f
  • Sea Pressure 1014.7mb
  • South Santa Rosa Is. Ca
  • South Santa Rosa Is. Ca

More Historic Weather Station data

Upgrade to MSW Pro to gain access to the past 30 days of data for over 8000 Wavebouys and Weather Stations around the globe.

Join Pro

Comparision Forecast

View Surf forecast
   
lun 05/04 10:50 7.5ft 19s 7s 20 25 mph 1014.7mb 61f 58f
9:50 7ft 17s 6s 20 22 mph 1014.9mb 61f 58f
8:50 7ft 17s 7s 20 25 mph 1014.2mb 61f 58f
7:50 7.5ft 19s 7s 20 22 mph 1013.9mb 61f 58f
6:50 7.5ft 19s 8s 18 22 mph 1013.9mb 62f 58f
5:50 8ft 17s 8s 18 22 mph 1014.2mb 62f 58f
4:50 7ft 19s 9s 16 20 mph 1014.4mb 62f 58f
3:50 7ft 19s 9s 13 18 mph 1014.7mb 62f 58f
2:50 7ft 19s 9s 11 13 mph 1015.2mb 62f 58f
1:50 7ft 19s 9s 9 11 mph 1015.5mb 61f 58f
12:50 7ft 19s 9s 9 11 mph 1015.7mb 61f 58f
11:50 7ft 19s 8s 11 16 mph 1015.7mb 61f 57f
10:50 7ft 12s 8s 11 16 mph 1015.4mb 61f 57f
9:50 7ft 11s 8s 11 16 mph 1014.7mb 61f 57f
8:50 8ft 19s 9s 13 18 mph 1014.4mb 61f 57f
7:50 8.5ft 19s 9s 13 16 mph 1014.1mb 61f 57f
6:50 7.5ft 15s 8s 13 18 mph 1013.7mb 61f 57f
5:50 8ft 19s 8s 16 20 mph 1013.2mb 61f 57f
4:50 8ft 19s 8s 16 20 mph 1012.8mb 61f 57f
3:50 9ft 19s 9s 18 22 mph 1012.7mb 61f 57f
2:50 7.5ft 16s 8s 18 22 mph 1012.6mb 61f 58f
1:50 8ft 21s 8s 18 22 mph 1012.8mb 61f 58f
12:50 9ft 12s 9s 20 25 mph 1012.8mb 61f 58f
dom 05/03 11:50 8ft 12s 8s 20 25 mph 1012.5mb 61f 58f
10:50 7ft 21s 8s 20 22 mph 1012.4mb 61f 58f
9:50 7ft 21s 8s 18 22 mph 1012.1mb 61f 58f
8:50 6ft 10s 7s 18 20 mph 1011.8mb 61f 58f
7:50 8ft 21s 9s 16 20 mph 1011.3mb 62f 58f
6:50 7ft 21s  -  16 18 mph 1011.3mb 62f 59f
5:50 7ft 21s 9s 11 16 mph 1012mb 62f 59f
4:50 8ft 21s 10s 11 13 mph 1012.5mb 62f 58f
3:50 7ft 21s 10s 9 13 mph 1012.9mb 62f 59f
2:50 7.5ft 10s 9s 9 13 mph 1013.6mb 62f 58f
1:50 8ft 9s 10s 7 11 mph 1013.9mb 62f 58f
12:50 7ft 11s 9s 9 11 mph 1014.4mb 61f 58f
11:50 6ft 10s 9s 7 9 mph 1014.6mb 61f 58f
10:50 7ft 24s 10s 7 9 mph 1014.4mb 61f 57f
9:50 5.5ft 10s 8s 7 11 mph 1013.9mb 61f 57f
8:50 6ft 10s 8s 9 11 mph 1013.4mb 61f 57f
7:50 5.5ft 10s 7s 9 13 mph 1013mb 61f 57f
6:50 5.5ft 10s 7s 11 13 mph 1012.4mb 61f 57f
5:50 6ft 17s 7s 11 16 mph 1011.8mb 61f 57f
4:50 6ft 24s 7s 13 18 mph 1011.5mb 61f 57f
3:50 6ft 9s 7s 13 16 mph 1011.5mb 61f 57f
2:50 6ft 9s 7s 16 20 mph 1011.2mb 61f 58f
1:50 6ft 9s 6s 18 22 mph 1011.1mb 61f 58f
12:50 6ft 10s 7s 18 22 mph 1011.1mb 61f 58f
sáb 05/02 11:50 6.5ft 10s 7s 20 22 mph 1011.2mb 61f 58f
10:50 5.5ft 10s 6s 18 22 mph 1011.4mb 61f 58f
9:50 5.5ft 9s 7s 18 20 mph 1011.3mb 61f 58f
8:50 6ft 10s 6s 18 20 mph 1010.9mb 61f 59f
7:50 6ft 10s 7s 18 22 mph 1010.6mb 62f 59f
6:50 5ft 10s 7s 18 20 mph 1010.8mb 62f 59f
5:50 5.5ft 10s 7s 16 18 mph 1011.1mb 62f 59f
4:50 5.5ft 10s 7s 16 18 mph 1011.4mb 62f 59f
3:50 5.5ft 10s 7s 16 18 mph 1011.6mb 62f 59f
2:50 5ft 10s 7s 13 16 mph 1011.9mb 62f 59f
1:50 6ft 10s 7s 16 18 mph 1012.4mb 61f 58f
12:50 6ft 10s 7s 16 18 mph 1012.9mb 60f 58f
11:50 5.5ft 10s 7s 13 16 mph 1013.1mb 60f 58f
10:50 5.5ft 10s 7s 16 18 mph 1012.7mb 60f 57f
9:50 6ft 10s 7s 16 18 mph 1012.2mb 60f 57f
8:50 5ft 11s 7s 16 18 mph 1011.9mb 60f 57f
7:50 5ft 11s 7s 13 18 mph 1011.7mb 60f 57f
6:50 5.5ft 11s 7s 16 18 mph 1011.1mb 60f 56f
5:50 5.5ft 11s 8s 16
mph
1010.8mb 60f 57f
4:50 6ft 11s 8s 16 18 mph 1010.7mb 60f 57f
3:50 6ft 11s 8s 13 18 mph 1011mb 60f 57f
2:50 6ft 11s 8s 13 18 mph 1011.2mb 59f 57f
1:50 7ft 11s 8s 16 18 mph 1011.7mb 60f 57f
12:50 7ft 11s 8s 13 16 mph 1012.3mb 60f 58f
vie 05/01 11:50 6ft 11s 8s 13 16 mph 1012.3mb 60f 58f
10:50 6ft 11s 8s 13 16 mph 1012.3mb 60f 59f
9:50 6ft 11s 8s 11 13 mph 1012.2mb 60f 59f
8:50 6ft 11s 9s 11 13 mph 1011.8mb 60f 59f
7:50 7ft 10s 9s 9 11 mph 1011.7mb 61f 59f
6:50 6.5ft 10s 9s 9 11 mph 1011.6mb 61f 60f
5:50 6ft 11s 9s 9 11 mph 1011.7mb 62f 60f
4:50 6ft 11s 9s 9 11 mph 1011.9mb 62f 59f
3:50 5.5ft 11s 8s 9
mph
1012.5mb 61f 59f
2:50 6ft 11s 8s 7 9 mph 1013mb 61f 58f
1:50 7.5ft 11s 9s 7 9 mph 1013mb 60f 58f
12:50 6.5ft 11s 8s 7 9 mph 1013.2mb 60f 57f
11:50 7ft 11s 9s 7 11 mph 1013.1mb 60f 57f
10:50 7.5ft 11s 9s 7 9 mph 1013.1mb 59f 56f
9:50 8.5ft 11s 9s 4 9 mph 1012.9mb 59f 56f
8:50 7ft 11s 8s 4 7 mph 1012.5mb 58f 55f
7:50 7ft 11s 9s 4 7 mph 1012.1mb 58f 55f